createdAt,value
2023-05-07T00:02:12.840Z,98.98
2023-05-07T00:04:39.271Z,99.60
2023-05-07T00:07:05.609Z,99.53
2023-05-07T00:09:34.706Z,99.73
2023-05-07T00:12:01.289Z,99.83
2023-05-07T00:14:27.704Z,99.87
2023-05-07T00:16:54.212Z,99.81
2023-05-07T00:19:20.695Z,100.00
2023-05-07T00:21:47.051Z,100.00
2023-05-07T00:24:13.480Z,100.00
2023-05-07T00:26:39.824Z,100.00
2023-05-07T00:29:06.138Z,100.00
2023-05-07T00:31:32.814Z,100.00
2023-05-07T00:33:59.277Z,100.00
2023-05-07T00:36:25.590Z,99.97
2023-05-07T00:38:51.991Z,100.00
2023-05-07T00:41:20.551Z,99.98
2023-05-07T00:43:46.963Z,99.96
2023-05-07T00:46:14.074Z,100.00
2023-05-07T00:48:40.847Z,100.00
2023-05-07T00:51:07.654Z,100.00
2023-05-07T00:53:34.879Z,100.00
2023-05-07T00:56:01.272Z,100.00
2023-05-07T00:58:27.752Z,100.00
2023-05-07T01:01:02.584Z,99.99
2023-05-07T01:03:29.018Z,100.00
2023-05-07T01:05:57.408Z,100.00
2023-05-07T01:08:24.469Z,100.00
2023-05-07T01:10:51.336Z,100.00
2023-05-07T01:13:19.024Z,100.00
2023-05-07T01:15:45.733Z,100.00
2023-05-07T01:18:12.530Z,100.00
2023-05-07T01:20:39.163Z,100.00
2023-05-07T01:23:07.319Z,100.00
2023-05-07T01:25:33.858Z,100.00
2023-05-07T01:28:00.906Z,100.00
2023-05-07T01:30:29.911Z,100.00
2023-05-07T01:32:59.203Z,100.00
2023-05-07T01:35:29.277Z,100.00
2023-05-07T01:37:55.712Z,100.00
2023-05-07T01:40:22.754Z,100.00
2023-05-07T01:42:49.107Z,100.00
2023-05-07T01:45:15.599Z,100.00
2023-05-07T01:47:42.664Z,100.00
2023-05-07T01:50:09.971Z,100.00
2023-05-07T01:52:38.590Z,100.00
2023-05-07T01:55:06.044Z,100.00
2023-05-07T01:57:32.558Z,100.00
2023-05-07T01:59:58.911Z,100.00
2023-05-07T02:02:25.412Z,100.00
2023-05-07T02:04:52.774Z,100.00
2023-05-07T02:07:22.644Z,100.00
2023-05-07T02:09:49.201Z,100.00
2023-05-07T02:12:15.805Z,100.00
2023-05-07T02:14:42.344Z,100.00
2023-05-07T02:17:08.660Z,100.00
2023-05-07T02:19:35.400Z,100.00
2023-05-07T02:22:01.737Z,100.00
2023-05-07T02:24:30.463Z,100.00
2023-05-07T02:26:56.992Z,100.00
2023-05-07T02:29:23.403Z,100.00
2023-05-07T02:31:49.824Z,100.00
2023-05-07T02:34:16.306Z,100.00
2023-05-07T02:36:42.877Z,100.00
2023-05-07T02:39:12.595Z,100.00
2023-05-07T02:41:39.010Z,100.00
2023-05-07T02:44:05.899Z,100.00
2023-05-07T02:46:32.833Z,100.00
2023-05-07T02:49:03.264Z,100.00
2023-05-07T02:51:30.457Z,100.00
2023-05-07T02:53:58.240Z,100.00
2023-05-07T02:56:26.485Z,100.00
2023-05-07T02:58:52.834Z,100.00
2023-05-07T03:01:19.867Z,100.00
2023-05-07T03:04:03.083Z,100.00
2023-05-07T03:06:29.588Z,100.00
2023-05-07T03:08:55.962Z,100.00
2023-05-07T03:11:22.329Z,100.00
2023-05-07T03:13:49.195Z,100.00
2023-05-07T03:16:17.544Z,100.00
2023-05-07T03:18:44.128Z,100.00
2023-05-07T03:21:11.087Z,100.00
2023-05-07T03:23:37.725Z,100.00
2023-05-07T03:26:04.134Z,100.00
2023-05-07T03:28:30.442Z,100.00
2023-05-07T03:31:00.187Z,100.00
2023-05-07T03:33:27.027Z,100.00
2023-05-07T03:35:54.309Z,100.00
2023-05-07T03:38:22.945Z,100.00
2023-05-07T03:40:49.802Z,100.00
2023-05-07T03:43:16.447Z,100.00
2023-05-07T03:45:46.882Z,100.00
2023-05-07T03:48:16.943Z,100.00
2023-05-07T03:50:43.442Z,100.00
2023-05-07T03:53:12.449Z,100.00
2023-05-07T03:55:39.473Z,100.00
2023-05-07T03:58:05.898Z,100.00
2023-05-07T04:00:32.645Z,100.00
2023-05-07T04:02:59.839Z,100.00
2023-05-07T04:05:28.876Z,99.98
2023-05-07T04:07:59.381Z,100.00
2023-05-07T04:10:30.289Z,100.00
2023-05-07T04:12:57.225Z,100.00
2023-05-07T04:15:24.043Z,99.95
2023-05-07T04:17:50.588Z,99.87
2023-05-07T04:20:18.536Z,99.83
2023-05-07T04:22:47.950Z,99.80
2023-05-07T04:25:16.302Z,99.98
2023-05-07T04:27:46.133Z,99.91
2023-05-07T04:30:13.530Z,99.66
2023-05-07T04:32:40.155Z,99.81
2023-05-07T04:35:06.884Z,99.66
2023-05-07T04:37:33.915Z,99.56
2023-05-07T04:40:00.826Z,99.42
2023-05-07T04:42:30.076Z,99.57
2023-05-07T04:44:56.487Z,99.81
2023-05-07T04:47:23.363Z,99.70
2023-05-07T04:49:50.911Z,99.70
2023-05-07T04:52:17.255Z,99.59
2023-05-07T04:54:43.655Z,99.49
2023-05-07T04:57:10.060Z,99.56
2023-05-07T04:59:38.979Z,99.51
2023-05-07T05:02:08.458Z,99.32
2023-05-07T05:04:34.898Z,99.17
2023-05-07T05:07:01.735Z,99.03
2023-05-07T05:09:28.369Z,98.83
2023-05-07T05:11:55.612Z,99.18
2023-05-07T05:14:24.258Z,99.24
2023-05-07T05:16:51.228Z,99.34
2023-05-07T05:19:18.223Z,99.42
2023-05-07T05:21:44.686Z,99.51
2023-05-07T05:24:13.754Z,99.47
2023-05-07T05:26:40.186Z,99.66
2023-05-07T05:29:07.731Z,99.69
2023-05-07T05:31:34.403Z,99.57
2023-05-07T05:34:00.869Z,99.37
2023-05-07T05:36:27.340Z,99.27
2023-05-07T05:38:55.833Z,98.99
2023-05-07T05:41:22.880Z,99.10
2023-05-07T05:43:52.249Z,98.93
2023-05-07T05:46:19.516Z,99.02
2023-05-07T05:48:46.781Z,99.07
2023-05-07T05:51:13.143Z,98.88
2023-05-07T05:53:39.572Z,98.52
2023-05-07T05:56:06.422Z,98.39
2023-05-07T05:58:33.589Z,98.41
2023-05-07T06:01:04.846Z,98.08
2023-05-07T06:03:31.889Z,98.24
2023-05-07T06:05:59.392Z,98.36
2023-05-07T06:08:26.490Z,98.07
2023-05-07T06:10:52.876Z,97.70
2023-05-07T06:13:19.414Z,97.63
2023-05-07T06:15:46.209Z,97.18
2023-05-07T06:18:13.014Z,96.81
2023-05-07T06:20:40.354Z,97.22
2023-05-07T06:23:09.945Z,97.30
2023-05-07T06:25:36.324Z,97.40
2023-05-07T06:28:03.071Z,97.34
2023-05-07T06:30:30.368Z,97.30
2023-05-07T06:32:57.728Z,96.91
2023-05-07T06:35:24.964Z,96.99
2023-05-07T06:37:51.456Z,96.84
2023-05-07T06:40:22.198Z,96.01
2023-05-07T06:42:49.054Z,96.28
2023-05-07T06:45:38.208Z,95.92
2023-05-07T06:48:05.014Z,95.50
2023-05-07T06:50:33.326Z,95.26
2023-05-07T06:53:00.782Z,95.63
2023-05-07T06:55:27.177Z,95.73
2023-05-07T06:57:53.963Z,96.02
2023-05-07T07:00:21.793Z,95.74
2023-05-07T07:02:52.134Z,94.98
2023-05-07T07:05:20.372Z,94.65
2023-05-07T07:07:46.850Z,94.94
2023-05-07T07:10:13.338Z,94.45
2023-05-07T07:12:39.801Z,94.45
2023-05-07T07:15:06.626Z,94.43
2023-05-07T07:17:33.082Z,94.64
2023-05-07T07:20:00.218Z,94.19
2023-05-07T07:22:26.595Z,93.93
2023-05-07T07:24:52.973Z,93.40
2023-05-07T07:27:19.391Z,93.08
2023-05-07T07:29:46.060Z,93.39
2023-05-07T07:32:12.597Z,93.00
2023-05-07T07:34:39.858Z,93.32
2023-05-07T07:37:06.657Z,93.27
2023-05-07T07:39:33.730Z,93.02
2023-05-07T07:42:00.543Z,92.69
2023-05-07T07:44:29.350Z,92.43
2023-05-07T07:46:58.608Z,92.93
2023-05-07T07:49:26.405Z,93.31
2023-05-07T07:51:53.397Z,93.50
2023-05-07T07:54:19.798Z,93.22
2023-05-07T07:56:46.636Z,92.66
2023-05-07T07:59:13.488Z,92.47
2023-05-07T08:01:40.384Z,91.90
2023-05-07T08:04:07.418Z,91.86
2023-05-07T08:06:36.816Z,92.18
2023-05-07T08:09:03.774Z,92.20
2023-05-07T08:11:38.044Z,92.24
2023-05-07T08:14:05.115Z,91.91
2023-05-07T08:16:31.973Z,91.22
2023-05-07T08:18:58.950Z,91.49
2023-05-07T08:21:25.560Z,91.30
2023-05-07T08:23:52.144Z,91.48
2023-05-07T08:26:18.994Z,91.29
2023-05-07T08:28:45.449Z,91.05
2023-05-07T08:31:14.419Z,90.76
2023-05-07T08:33:41.350Z,90.75
2023-05-07T08:36:10.516Z,90.38
2023-05-07T08:38:37.468Z,89.97
2023-05-07T08:41:06.505Z,90.19
2023-05-07T08:43:33.264Z,90.09
2023-05-07T08:46:01.296Z,89.92
2023-05-07T08:48:44.591Z,90.43
2023-05-07T08:51:19.824Z,90.12
2023-05-07T08:53:52.065Z,90.25
2023-05-07T08:56:25.212Z,90.18
2023-05-07T08:58:52.419Z,90.28
2023-05-07T09:01:19.389Z,89.94
2023-05-07T09:03:56.717Z,89.79
2023-05-07T09:06:23.891Z,89.27
2023-05-07T09:08:51.461Z,88.91
2023-05-07T09:11:20.403Z,89.41
2023-05-07T09:13:47.114Z,88.84
2023-05-07T09:16:22.801Z,88.22
2023-05-07T09:18:51.740Z,88.65
2023-05-07T09:21:18.912Z,88.64
2023-05-07T09:23:48.066Z,88.36
2023-05-07T09:26:14.793Z,88.58
2023-05-07T09:28:42.502Z,88.89
2023-05-07T09:31:10.796Z,89.11
2023-05-07T09:33:38.204Z,89.25
2023-05-07T09:36:05.709Z,89.25
2023-05-07T09:38:33.450Z,88.81
2023-05-07T09:41:07.182Z,88.83
2023-05-07T09:43:37.926Z,88.84
2023-05-07T09:46:11.703Z,89.21
2023-05-07T09:48:39.632Z,88.69
2023-05-07T09:51:15.875Z,88.85
2023-05-07T09:53:43.569Z,88.62
2023-05-07T09:56:11.557Z,88.94
2023-05-07T09:58:39.749Z,88.63
2023-05-07T10:01:06.862Z,88.86
2023-05-07T10:03:38.537Z,88.34
2023-05-07T10:06:05.568Z,88.63
2023-05-07T10:08:32.142Z,88.00
2023-05-07T10:10:59.958Z,88.40
2023-05-07T10:13:27.693Z,88.14
2023-05-07T10:15:55.961Z,88.40
2023-05-07T10:18:23.699Z,87.97
2023-05-07T10:20:51.804Z,87.84
2023-05-07T10:23:22.456Z,88.19
2023-05-07T10:25:49.057Z,88.44
2023-05-07T10:28:19.859Z,88.29
2023-05-07T10:30:56.185Z,88.50
2023-05-07T10:33:25.424Z,88.53
2023-05-07T10:35:56.014Z,88.20
2023-05-07T10:38:22.523Z,88.17
2023-05-07T10:40:54.552Z,88.29
2023-05-07T10:43:23.952Z,88.22
2023-05-07T10:46:14.281Z,88.69
2023-05-07T10:49:02.160Z,88.27
2023-05-07T10:51:34.996Z,88.12
2023-05-07T10:54:10.692Z,88.37
2023-05-07T10:56:38.830Z,88.57
2023-05-07T10:59:30.715Z,88.69
2023-05-07T11:02:00.429Z,87.89
2023-05-07T11:05:07.946Z,87.70
2023-05-07T11:07:34.911Z,88.22
2023-05-07T11:10:06.202Z,88.56
2023-05-07T11:12:53.742Z,88.49
2023-05-07T11:15:36.042Z,88.50
2023-05-07T11:18:07.372Z,87.83
2023-05-07T11:20:56.261Z,87.36
2023-05-07T11:23:40.208Z,87.19
2023-05-07T11:26:15.969Z,86.75
2023-05-07T11:28:44.006Z,86.85
2023-05-07T11:31:11.268Z,87.13
2023-05-07T11:33:38.628Z,86.32
2023-05-07T11:36:09.105Z,85.68
2023-05-07T11:38:41.120Z,85.88
2023-05-07T11:41:07.978Z,85.53
2023-05-07T11:43:35.119Z,84.85
2023-05-07T11:46:09.296Z,83.38
2023-05-07T11:48:36.797Z,82.76
2023-05-07T11:51:04.629Z,82.29
2023-05-07T11:53:41.752Z,81.70
2023-05-07T11:56:12.681Z,82.04
2023-05-07T11:58:39.896Z,82.86
2023-05-07T12:01:10.954Z,82.32
2023-05-07T12:03:38.623Z,82.26
2023-05-07T12:06:09.127Z,82.11
2023-05-07T12:08:39.606Z,82.35
2023-05-07T12:11:10.546Z,83.36
2023-05-07T12:13:48.028Z,83.29
2023-05-07T12:16:14.645Z,83.53
2023-05-07T12:18:41.600Z,83.80
2023-05-07T12:21:08.146Z,84.00
2023-05-07T12:23:43.908Z,83.41
2023-05-07T12:26:10.570Z,83.46
2023-05-07T12:28:38.431Z,83.65
2023-05-07T12:31:07.018Z,83.94
2023-05-07T12:33:35.898Z,84.21
2023-05-07T12:36:06.422Z,83.83
2023-05-07T12:38:36.979Z,83.27
2023-05-07T12:41:03.597Z,82.71
2023-05-07T12:43:38.792Z,80.92
2023-05-07T12:46:06.734Z,80.27
2023-05-07T12:48:33.544Z,80.49
2023-05-07T12:51:01.012Z,80.58
2023-05-07T12:53:28.177Z,80.73
2023-05-07T12:55:55.656Z,80.62
2023-05-07T12:58:31.224Z,80.89
2023-05-07T13:01:01.316Z,81.12
2023-05-07T13:03:28.984Z,80.75
2023-05-07T13:06:09.136Z,80.96
2023-05-07T13:09:06.980Z,81.43
2023-05-07T13:11:33.544Z,81.72
2023-05-07T13:13:59.985Z,82.09
2023-05-07T13:16:33.831Z,82.16
2023-05-07T13:19:00.299Z,82.57
2023-05-07T13:21:26.648Z,82.91
2023-05-07T13:23:53.060Z,82.98
2023-05-07T13:28:51.937Z,83.17
2023-05-07T13:31:18.500Z,83.06
2023-05-07T13:33:47.754Z,82.93
2023-05-07T13:36:14.970Z,82.94
2023-05-07T13:38:41.392Z,83.44
2023-05-07T13:41:07.866Z,82.94
2023-05-07T13:43:34.231Z,82.78
2023-05-07T13:46:01.066Z,82.58
2023-05-07T13:48:27.565Z,82.91
2023-05-07T13:50:54.011Z,83.04
2023-05-07T13:53:20.427Z,81.83
2023-05-07T13:55:46.896Z,81.92
2023-05-07T13:58:14.051Z,81.74
2023-05-07T14:00:40.538Z,81.94
2023-05-07T14:03:07.277Z,82.07
2023-05-07T14:05:33.778Z,81.67
2023-05-07T14:08:00.619Z,81.39
2023-05-07T14:10:27.110Z,80.88
2023-05-07T14:12:53.783Z,81.62
2023-05-07T14:15:20.398Z,81.71
2023-05-07T14:17:46.843Z,81.97
2023-05-07T14:20:13.537Z,82.52
2023-05-07T14:22:40.273Z,82.78
2023-05-07T14:25:07.527Z,82.69
2023-05-07T14:27:34.002Z,83.03
2023-05-07T14:30:00.369Z,82.77
2023-05-07T14:32:26.986Z,83.16
2023-05-07T14:34:53.443Z,83.40
2023-05-07T14:37:22.740Z,83.58
2023-05-07T14:39:50.976Z,83.76
2023-05-07T14:42:18.150Z,83.52
2023-05-07T14:44:45.529Z,83.89
2023-05-07T14:47:12.058Z,84.06
2023-05-07T14:49:38.792Z,84.16
2023-05-07T14:52:05.382Z,84.33
2023-05-07T14:54:33.784Z,84.36
2023-05-07T14:57:00.242Z,84.23
2023-05-07T14:59:26.621Z,83.99
2023-05-07T15:01:53.142Z,84.14
2023-05-07T15:04:24.090Z,83.68
2023-05-07T15:06:50.410Z,83.64
2023-05-07T15:09:16.781Z,83.08
2023-05-07T15:11:46.059Z,83.04
2023-05-07T15:14:12.508Z,82.99
2023-05-07T15:16:38.885Z,82.86
2023-05-07T15:19:05.337Z,82.58
2023-05-07T15:21:32.200Z,82.99
2023-05-07T15:23:58.715Z,83.43
2023-05-07T15:26:25.048Z,83.00
2023-05-07T15:28:51.453Z,83.47
2023-05-07T15:31:17.973Z,83.34
2023-05-07T15:33:44.667Z,83.16
2023-05-07T15:36:11.134Z,83.14
2023-05-07T15:38:38.106Z,83.42
2023-05-07T15:41:04.823Z,83.44
2023-05-07T15:43:31.462Z,83.68
2023-05-07T15:45:58.032Z,84.02
2023-05-07T15:48:27.209Z,83.93
2023-05-07T15:50:56.991Z,84.06
2023-05-07T15:53:23.558Z,84.12
2023-05-07T15:55:50.012Z,84.07
2023-05-07T15:58:16.531Z,84.14
2023-05-07T16:00:43.072Z,84.27
2023-05-07T16:03:09.916Z,84.51
2023-05-07T16:05:36.459Z,84.62
2023-05-07T16:08:05.820Z,84.67
2023-05-07T16:10:32.484Z,84.60
2023-05-07T16:12:59.106Z,84.67
2023-05-07T16:15:25.939Z,84.79
2023-05-07T16:17:52.463Z,84.96
2023-05-07T16:20:24.467Z,85.05
2023-05-07T16:22:51.249Z,85.33
2023-05-07T16:25:18.154Z,85.06
2023-05-07T16:27:44.504Z,85.13
2023-05-07T16:30:11.061Z,85.32
2023-05-07T16:32:37.512Z,85.49
2023-05-07T16:35:06.617Z,85.29
2023-05-07T16:37:33.980Z,85.58
2023-05-07T16:40:06.882Z,85.35
2023-05-07T16:42:34.933Z,85.00
2023-05-07T16:45:02.107Z,85.14
2023-05-07T16:47:28.944Z,85.08
2023-05-07T16:49:55.904Z,85.28
2023-05-07T16:52:32.253Z,85.13
2023-05-07T16:54:58.802Z,84.93
2023-05-07T16:57:26.015Z,84.96
2023-05-07T16:59:52.720Z,85.17
2023-05-07T17:02:19.368Z,84.95
2023-05-07T17:04:58.998Z,84.87
2023-05-07T17:07:25.849Z,84.92
2023-05-07T17:09:52.550Z,85.02
2023-05-07T17:12:21.535Z,85.26
2023-05-07T17:14:48.515Z,85.35
2023-05-07T17:17:18.311Z,85.49
2023-05-07T17:19:45.974Z,85.34
2023-05-07T17:22:13.073Z,85.41
2023-05-07T17:24:49.057Z,85.39
2023-05-07T17:27:27.300Z,85.38
2023-05-07T17:29:53.979Z,85.25
2023-05-07T17:32:20.581Z,85.11
2023-05-07T17:34:50.178Z,85.30
2023-05-07T17:37:16.761Z,85.26
2023-05-07T17:39:43.238Z,85.10
2023-05-07T17:42:09.945Z,85.23
2023-05-07T17:44:41.465Z,85.41
2023-05-07T17:47:13.309Z,85.37
2023-05-07T17:49:40.128Z,85.44
2023-05-07T17:52:06.604Z,85.52
2023-05-07T17:54:33.200Z,85.67
2023-05-07T17:56:59.763Z,85.74
2023-05-07T17:59:26.184Z,85.96
2023-05-07T18:01:52.708Z,86.03
2023-05-07T18:04:19.255Z,86.12
2023-05-07T18:06:45.802Z,86.11
2023-05-07T18:09:12.450Z,86.34
2023-05-07T18:11:39.113Z,86.37
2023-05-07T18:14:05.673Z,86.45
2023-05-07T18:16:32.531Z,86.44
2023-05-07T18:18:59.137Z,86.42
2023-05-07T18:21:25.567Z,86.59
2023-05-07T18:23:52.162Z,86.57
2023-05-07T18:26:18.578Z,86.81
2023-05-07T18:28:45.133Z,87.00
2023-05-07T18:31:11.576Z,86.97
2023-05-07T18:33:38.326Z,87.14
2023-05-07T18:36:05.133Z,87.12
2023-05-07T18:38:32.112Z,87.14
2023-05-07T18:41:04.989Z,87.21
2023-05-07T18:43:32.298Z,87.37
2023-05-07T18:45:58.900Z,87.38
2023-05-07T18:48:26.659Z,87.29
2023-05-07T18:50:53.436Z,87.60
2023-05-07T18:53:20.148Z,87.71
2023-05-07T18:55:52.348Z,87.85
2023-05-07T18:58:18.972Z,87.85
2023-05-07T19:00:46.763Z,87.82
2023-05-07T19:03:13.978Z,87.87
2023-05-07T19:05:41.989Z,87.91
2023-05-07T19:08:09.282Z,87.92
2023-05-07T19:10:35.958Z,88.03
2023-05-07T19:13:02.752Z,87.86
2023-05-07T19:15:29.580Z,88.02
2023-05-07T19:17:56.372Z,87.85
2023-05-07T19:20:22.866Z,87.97
2023-05-07T19:22:49.984Z,88.06
2023-05-07T19:25:17.233Z,88.19
2023-05-07T19:27:43.885Z,87.99
2023-05-07T19:30:11.828Z,88.23
2023-05-07T19:32:38.848Z,88.28
2023-05-07T19:35:07.064Z,88.24
2023-05-07T19:37:33.843Z,88.39
2023-05-07T19:40:00.390Z,88.27
2023-05-07T19:42:26.808Z,88.37
2023-05-07T19:44:53.240Z,88.54
2023-05-07T19:47:22.149Z,88.34
2023-05-07T19:49:48.925Z,88.46
2023-05-07T19:52:15.687Z,88.65
2023-05-07T19:54:42.367Z,88.64
2023-05-07T19:57:08.903Z,88.62
2023-05-07T19:59:35.880Z,88.50
2023-05-07T20:02:03.633Z,88.49
2023-05-07T20:04:30.289Z,88.72
2023-05-07T20:06:59.046Z,88.68
2023-05-07T20:09:25.571Z,88.61
2023-05-07T20:11:52.675Z,88.35
2023-05-07T20:14:22.113Z,88.55
2023-05-07T20:16:51.778Z,88.56
2023-05-07T20:19:18.614Z,88.44
2023-05-07T20:21:45.856Z,88.33
2023-05-07T20:24:12.444Z,88.47
2023-05-07T20:26:39.034Z,88.56
2023-05-07T20:29:05.596Z,88.19
2023-05-07T20:31:32.309Z,88.25
2023-05-07T20:33:58.820Z,88.29
2023-05-07T20:36:25.334Z,88.42
2023-05-07T20:38:51.945Z,88.31
2023-05-07T20:41:18.454Z,88.48
2023-05-07T20:43:47.637Z,88.76
2023-05-07T20:46:14.374Z,88.68
2023-05-07T20:48:40.883Z,88.77
2023-05-07T20:51:12.531Z,88.78
2023-05-07T20:53:39.091Z,88.92
2023-05-07T20:56:05.467Z,88.84
2023-05-07T20:58:34.764Z,89.07
2023-05-07T21:01:03.670Z,89.01
2023-05-07T21:03:41.150Z,89.42
2023-05-07T21:06:07.664Z,89.62
2023-05-07T21:08:34.249Z,89.57
2023-05-07T21:11:03.039Z,89.74
2023-05-07T21:13:30.971Z,89.84
2023-05-07T21:15:57.409Z,90.21
2023-05-07T21:18:23.892Z,90.11
2023-05-07T21:20:50.497Z,90.53
2023-05-07T21:23:16.829Z,90.48
2023-05-07T21:25:43.265Z,90.68
2023-05-07T21:28:09.732Z,90.42
2023-05-07T21:30:39.340Z,90.56
2023-05-07T21:33:08.299Z,90.92
2023-05-07T21:35:35.570Z,90.74
2023-05-07T21:38:02.006Z,90.60
2023-05-07T21:40:31.006Z,90.33
2023-05-07T21:43:00.056Z,90.40
2023-05-07T21:45:26.609Z,90.59
2023-05-07T21:47:53.039Z,90.70
2023-05-07T21:50:19.818Z,90.90
2023-05-07T21:52:46.207Z,90.97
2023-05-07T21:55:12.877Z,91.36
2023-05-07T21:57:39.876Z,91.47
2023-05-07T22:00:07.618Z,91.74
2023-05-07T22:02:34.072Z,91.55
2023-05-07T22:05:00.683Z,91.61
2023-05-07T22:07:27.118Z,91.44
2023-05-07T22:09:53.614Z,91.67
2023-05-07T22:12:20.126Z,91.59
2023-05-07T22:14:46.544Z,91.34
2023-05-07T22:17:12.974Z,91.42
2023-05-07T22:19:39.320Z,91.33
2023-05-07T22:22:05.861Z,91.40
2023-05-07T22:24:32.330Z,91.18
2023-05-07T22:26:58.806Z,90.95
2023-05-07T22:29:25.409Z,90.80
2023-05-07T22:31:51.798Z,90.80
2023-05-07T22:34:18.148Z,90.69
2023-05-07T22:36:44.623Z,90.68
2023-05-07T22:39:10.940Z,90.66
2023-05-07T22:41:37.380Z,90.47
2023-05-07T22:44:03.960Z,90.33
2023-05-07T22:46:30.356Z,90.47
2023-05-07T22:48:56.691Z,90.23
2023-05-07T22:51:23.051Z,90.31
2023-05-07T22:53:49.517Z,90.01
2023-05-07T22:56:15.857Z,90.07
2023-05-07T22:58:42.197Z,90.24
2023-05-07T23:01:12.352Z,89.96
2023-05-07T23:03:38.765Z,89.89
2023-05-07T23:06:05.273Z,89.53
2023-05-07T23:08:31.608Z,89.59
2023-05-07T23:10:57.933Z,89.82
2023-05-07T23:13:24.436Z,89.77
2023-05-07T23:15:50.922Z,89.94
2023-05-07T23:18:17.251Z,90.02
2023-05-07T23:20:43.656Z,89.94
2023-05-07T23:23:10.153Z,89.86
2023-05-07T23:25:36.586Z,89.94
2023-05-07T23:28:03.045Z,89.93
2023-05-07T23:30:29.458Z,90.00
2023-05-07T23:32:55.964Z,89.84
2023-05-07T23:35:22.490Z,89.65
2023-05-07T23:37:48.972Z,89.72
2023-05-07T23:40:16.603Z,89.39
2023-05-07T23:42:43.321Z,88.85
2023-05-07T23:45:09.868Z,88.51
2023-05-07T23:47:36.401Z,88.38
2023-05-07T23:50:02.822Z,88.27
2023-05-07T23:52:29.207Z,88.09
2023-05-07T23:54:55.727Z,87.92
2023-05-07T23:57:22.190Z,87.81
2023-05-07T23:59:48.544Z,87.99
